Time;durP1;ratioP1;P1;durP2;ratioP2;P2;SDS_P1;SDS_P2;PMS_P1;PMS_P2;Temp;Humidity;BMP_temperature;BMP_pressure;BME280_temperature;BME280_humidity;BME280_pressure;Samples;Min_cycle;Max_cycle;Signal;HPM_P1;HPM_P2
2021/08/03 00:01:34;;;;;;;5.97;4.05;;;10.80;99.90;;;;;;4938822;29;20046;-93
2021/08/03 00:04:13;;;;;;;8.93;4.57;;;10.80;99.90;;;;;;4938440;29;20027;-93
2021/08/03 00:07:08;;;;;;;8.60;4.03;;;10.80;99.90;;;;;;4937822;29;20114;-94
2021/08/03 00:09:34;;;;;;;6.43;4.43;;;10.70;99.90;;;;;;4936503;28;20078;-92
2021/08/03 00:12:01;;;;;;;9.10;4.05;;;10.80;99.90;;;;;;4937970;29;20028;-93
2021/08/03 00:14:26;;;;;;;7.57;4.68;;;10.70;99.90;;;;;;4937590;29;20523;-94
2021/08/03 00:16:54;;;;;;;7.57;4.93;;;10.80;99.90;;;;;;4937296;29;20110;-92
2021/08/03 00:19:25;;;;;;;10.10;4.05;;;10.80;99.90;;;;;;4938569;29;20027;-93
2021/08/03 00:21:51;;;;;;;6.03;4.07;;;10.70;99.90;;;;;;4938254;29;20397;-93
2021/08/03 00:24:18;;;;;;;7.53;3.60;;;10.60;99.90;;;;;;4937936;29;20118;-93
2021/08/03 00:26:44;;;;;;;9.55;4.25;;;10.60;99.90;;;;;;4938005;29;20034;-93
2021/08/03 00:29:13;;;;;;;11.20;5.78;;;10.50;99.90;;;;;;4938039;29;20027;-93
2021/08/03 00:31:39;;;;;;;9.60;4.65;;;10.50;99.90;;;;;;4940113;29;20063;-94
2021/08/03 00:34:05;;;;;;;6.45;4.03;;;10.40;99.90;;;;;;4941900;29;20110;-93
2021/08/03 00:36:31;;;;;;;6.90;4.25;;;10.30;99.90;;;;;;4942450;29;20079;-93
2021/08/03 00:38:58;;;;;;;5.05;4.22;;;10.30;99.90;;;;;;4942373;29;20031;-93
2021/08/03 00:41:28;;;;;;;9.23;4.80;;;10.20;99.90;;;;;;4942187;29;20485;-94
2021/08/03 00:43:54;;;;;;;6.45;4.28;;;10.20;99.90;;;;;;4942314;29;20473;-92
2021/08/03 00:46:20;;;;;;;6.22;4.22;;;10.10;99.90;;;;;;4941645;29;20043;-92
2021/08/03 00:48:45;;;;;;;8.73;4.70;;;10.10;99.90;;;;;;4941832;29;20038;-92
2021/08/03 00:51:11;;;;;;;7.95;3.63;;;10.00;99.90;;;;;;4941755;29;20031;-92
2021/08/03 00:53:37;;;;;;;10.32;4.93;;;9.90;99.90;;;;;;4941585;29;20024;-94
2021/08/03 00:56:03;;;;;;;10.00;5.47;;;9.90;99.90;;;;;;4941776;29;20070;-91
2021/08/03 00:58:29;;;;;;;6.70;4.50;;;9.90;99.90;;;;;;4941401;29;20042;-93
2021/08/03 01:00:56;;;;;;;7.25;4.75;;;9.90;99.90;;;;;;4941353;29;20042;-92
2021/08/03 01:03:23;;;;;;;8.40;5.18;;;9.90;99.90;;;;;;4941016;29;20019;-93
2021/08/03 01:05:51;;;;;;;10.20;5.15;;;10.00;99.90;;;;;;4941076;29;20118;-93
2021/08/03 01:08:40;;;;;;;8.38;5.00;;;10.00;99.90;;;;;;4941027;29;20464;-94
2021/08/03 01:11:24;;;;;;;11.10;4.63;;;10.00;99.90;;;;;;4923322;29;20059;-94
2021/08/03 01:14:02;;;;;;;9.43;4.43;;;9.90;99.90;;;;;;4918236;29;20039;-93
2021/08/03 01:16:48;;;;;;;11.43;4.85;;;9.90;99.90;;;;;;4918543;29;20029;-92
2021/08/03 01:19:46;;;;;;;7.15;4.30;;;9.90;99.90;;;;;;4918515;29;20024;-94
2021/08/03 01:22:33;;;;;;;7.10;4.30;;;9.80;99.90;;;;;;4918874;29;20100;-94
2021/08/03 01:25:26;;;;;;;6.93;4.18;;;9.80;99.90;;;;;;4919579;29;20037;-93
2021/08/03 01:28:01;;;;;;;8.23;5.03;;;9.80;99.90;;;;;;4919948;29;20095;-94
2021/08/03 01:30:27;;;;;;;8.23;4.32;;;9.80;99.90;;;;;;4919140;29;20554;-93
2021/08/03 01:32:56;;;;;;;9.07;4.93;;;9.70;99.90;;;;;;4933985;29;20014;-94
2021/08/03 01:35:22;;;;;;;9.57;5.30;;;9.70;99.90;;;;;;4940644;29;20094;-94
2021/08/03 01:37:49;;;;;;;10.68;5.53;;;9.70;99.90;;;;;;4934399;29;20448;-93
2021/08/03 01:40:15;;;;;;;8.65;5.40;;;9.60;99.90;;;;;;4924694;29;20159;-93
2021/08/03 01:42:42;;;;;;;5.68;4.70;;;9.60;99.90;;;;;;4925689;29;20032;-94
2021/08/03 01:45:10;;;;;;;9.00;5.32;;;9.60;99.90;;;;;;4924850;29;20041;-93
2021/08/03 01:47:37;;;;;;;8.15;5.20;;;9.50;99.90;;;;;;4920890;29;20184;-91
2021/08/03 01:50:05;;;;;;;9.52;5.60;;;9.50;99.90;;;;;;4920793;29;20028;-93
2021/08/03 01:52:33;;;;;;;8.75;5.07;;;9.50;99.90;;;;;;4919214;29;20115;-93
2021/08/03 01:54:59;;;;;;;11.70;5.50;;;9.50;99.90;;;;;;4919050;29;20024;-92
2021/08/03 01:57:25;;;;;;;7.88;5.50;;;9.40;99.90;;;;;;4918916;29;20035;-92
2021/08/03 01:59:53;;;;;;;8.57;5.57;;;9.40;99.90;;;;;;4918955;29;20025;-92
2021/08/03 02:02:19;;;;;;;9.82;5.72;;;9.40;99.90;;;;;;4918554;29;20074;-93
2021/08/03 02:04:47;;;;;;;7.97;5.53;;;9.30;99.90;;;;;;4918706;29;20032;-93
2021/08/03 02:07:19;;;;;;;9.88;5.85;;;9.30;99.90;;;;;;4918433;29;20135;-92
2021/08/03 02:09:45;;;;;;;10.20;5.55;;;9.30;99.90;;;;;;4918246;29;20040;-92
2021/08/03 02:12:12;;;;;;;9.75;5.70;;;9.20;99.90;;;;;;4917756;29;20158;-92
2021/08/03 02:14:44;;;;;;;10.30;5.10;;;9.10;99.90;;;;;;4918159;29;20497;-92
2021/08/03 02:17:20;;;;;;;12.18;5.50;;;9.10;99.90;;;;;;4917354;29;20487;-93
2021/08/03 02:19:46;;;;;;;9.52;5.63;;;9.10;99.90;;;;;;4917361;29;20040;-92
2021/08/03 02:22:13;;;;;;;8.93;5.95;;;9.00;99.90;;;;;;4917696;29;20582;-94
2021/08/03 02:24:39;;;;;;;7.57;5.20;;;9.10;99.90;;;;;;4917418;29;20032;-92
2021/08/03 02:27:05;;;;;;;7.80;5.13;;;9.10;99.90;;;;;;4917376;29;20051;-92
2021/08/03 02:29:33;;;;;;;8.63;5.50;;;9.10;99.90;;;;;;4917329;29;20028;-91
2021/08/03 02:32:30;;;;;;;9.25;5.53;;;9.00;99.90;;;;;;4917066;29;20028;-92
2021/08/03 02:35:04;;;;;;;10.13;5.53;;;9.00;99.90;;;;;;4902497;29;20032;-92
2021/08/03 02:37:33;;;;;;;5.95;4.43;;;8.90;99.90;;;;;;4917381;29;20479;-92
2021/08/03 02:40:01;;;;;;;6.50;5.05;;;8.90;99.90;;;;;;4916881;29;20119;-92
2021/08/03 02:42:28;;;;;;;8.07;5.20;;;8.90;99.90;;;;;;4917139;29;20123;-91
2021/08/03 02:44:59;;;;;;;7.28;4.90;;;8.90;99.90;;;;;;4917636;29;20182;-92
2021/08/03 02:47:27;;;;;;;8.30;4.60;;;8.90;99.90;;;;;;4917462;29;20039;-92
2021/08/03 02:49:54;;;;;;;7.28;5.10;;;8.90;99.90;;;;;;4918582;29;20034;-92
2021/08/03 02:52:26;;;;;;;8.18;5.00;;;8.90;99.90;;;;;;4917288;29;20068;-92
2021/08/03 02:54:58;;;;;;;7.95;4.65;;;8.90;99.90;;;;;;4916967;29;20031;-93
2021/08/03 02:57:25;;;;;;;7.10;5.03;;;8.90;99.90;;;;;;4917329;29;20539;-92
2021/08/03 02:59:59;;;;;;;8.13;5.13;;;8.80;99.90;;;;;;4917524;29;20032;-93
2021/08/03 03:02:28;;;;;;;7.88;5.00;;;8.70;99.90;;;;;;4917148;29;20047;-93
2021/08/03 03:04:57;;;;;;;9.48;5.30;;;8.70;99.90;;;;;;4917098;29;20024;-92
2021/08/03 03:07:31;;;;;;;8.98;5.30;;;8.70;99.90;;;;;;4917547;29;20114;-93
2021/08/03 03:09:58;;;;;;;12.00;5.53;;;8.70;99.90;;;;;;4917086;29;20052;-92
2021/08/03 03:12:27;;;;;;;8.32;5.25;;;8.70;99.90;;;;;;4916985;29;20610;-92
2021/08/03 03:14:57;;;;;;;9.88;4.97;;;8.70;99.90;;;;;;4916738;29;20123;-93
2021/08/03 03:17:25;;;;;;;11.88;5.50;;;8.70;99.90;;;;;;4916841;29;20032;-93
2021/08/03 03:19:55;;;;;;;11.95;5.20;;;8.60;99.90;;;;;;4916781;29;20024;-92
2021/08/03 03:22:22;;;;;;;9.68;5.15;;;8.60;99.90;;;;;;4916994;29;20036;-92
2021/08/03 03:24:50;;;;;;;10.05;5.10;;;8.70;99.90;;;;;;4916584;29;20032;-94
2021/08/03 03:27:19;;;;;;;7.22;4.90;;;8.70;99.90;;;;;;4916661;29;20112;-92
2021/08/03 03:29:45;;;;;;;10.63;5.22;;;8.60;99.90;;;;;;4916475;29;20036;-92
2021/08/03 03:32:11;;;;;;;6.28;4.22;;;8.60;99.90;;;;;;4916582;29;20028;-92
2021/08/03 03:34:39;;;;;;;6.82;4.43;;;8.60;99.90;;;;;;4916821;29;20028;-92
2021/08/03 03:37:05;;;;;;;7.55;4.15;;;8.60;99.90;;;;;;4916699;29;20028;-92
2021/08/03 03:39:35;;;;;;;6.68;4.72;;;8.60;99.90;;;;;;4916812;29;20043;-92
2021/08/03 03:42:04;;;;;;;7.18;4.13;;;8.50;99.90;;;;;;4916723;29;20047;-92
2021/08/03 03:44:30;;;;;;;8.13;3.90;;;8.40;99.90;;;;;;4916474;29;20474;-92
2021/08/03 03:47:11;;;;;;;6.25;3.72;;;8.30;99.90;;;;;;4916712;29;20038;-92
2021/08/03 03:49:41;;;;;;;5.72;3.75;;;8.30;99.90;;;;;;4916977;29;20038;-92
2021/08/03 03:52:09;;;;;;;7.63;4.25;;;8.20;99.90;;;;;;4916994;29;20507;-93
2021/08/03 03:54:38;;;;;;;5.65;3.35;;;8.20;99.90;;;;;;4916479;29;20063;-92
2021/08/03 03:57:05;;;;;;;10.25;4.25;;;8.20;99.90;;;;;;4916977;29;20035;-92
2021/08/03 03:59:36;;;;;;;6.35;4.53;;;8.20;99.90;;;;;;4916845;29;20036;-91
2021/08/03 04:02:05;;;;;;;7.03;4.45;;;8.20;99.90;;;;;;4917513;29;20516;-92
2021/08/03 04:04:33;;;;;;;5.40;3.85;;;8.10;99.90;;;;;;4917884;29;20028;-92
2021/08/03 04:07:00;;;;;;;8.52;4.97;;;8.10;99.90;;;;;;4917268;29;20076;-92
2021/08/03 04:09:25;;;;;;;7.35;4.95;;;8.00;99.90;;;;;;4919991;28;20031;-92
2021/08/03 04:11:52;;;;;;;8.00;4.57;;;8.00;99.90;;;;;;4940828;29;20478;-92
2021/08/03 04:14:26;;;;;;;11.27;5.25;;;8.00;99.90;;;;;;4946031;29;20509;-91
2021/08/03 04:16:54;;;;;;;9.55;5.20;;;8.00;99.90;;;;;;4949978;29;20066;-92
2021/08/03 04:19:21;;;;;;;6.72;4.57;;;8.00;99.90;;;;;;4959904;28;20015;-93
2021/08/03 04:21:47;;;;;;;7.32;4.88;;;8.00;99.90;;;;;;4961575;28;20055;-92
2021/08/03 04:24:14;;;;;;;6.43;4.47;;;7.90;99.90;;;;;;4961939;28;20083;-93
2021/08/03 04:26:39;;;;;;;12.43;5.55;;;7.90;99.90;;;;;;4953993;29;20028;-92
2021/08/03 04:29:05;;;;;;;52.13;7.45;;;7.80;99.90;;;;;;4938965;29;20028;-92
2021/08/03 04:31:31;;;;;;;23.02;7.65;;;7.80;99.90;;;;;;4938896;29;20039;-93
2021/08/03 04:33:57;;;;;;;15.55;7.35;;;7.80;99.90;;;;;;4938320;29;20495;-91
2021/08/03 04:36:22;;;;;;;12.45;7.32;;;7.70;99.90;;;;;;4938342;29;20064;-91
2021/08/03 04:38:48;;;;;;;22.77;7.35;;;7.70;99.90;;;;;;4938264;29;20027;-92
2021/08/03 04:41:14;;;;;;;28.00;8.35;;;7.70;99.90;;;;;;4937927;29;20031;-92
2021/08/03 04:43:42;;;;;;;19.55;7.13;;;7.80;99.90;;;;;;4937738;29;20165;-92
2021/08/03 04:46:11;;;;;;;12.27;7.18;;;7.80;99.90;;;;;;4937786;29;20031;-92
2021/08/03 04:48:37;;;;;;;10.88;6.65;;;7.80;99.90;;;;;;4937798;29;20049;-92
2021/08/03 04:51:03;;;;;;;14.05;7.43;;;7.80;99.90;;;;;;4937969;29;20036;-92
2021/08/03 04:53:29;;;;;;;12.63;6.80;;;7.80;99.90;;;;;;4937827;29;20473;-93
2021/08/03 04:55:55;;;;;;;18.25;7.95;;;7.80;99.90;;;;;;4938098;29;20027;-92
2021/08/03 04:58:20;;;;;;;18.25;7.72;;;7.80;99.90;;;;;;4937716;29;20035;-92
2021/08/03 05:00:46;;;;;;;13.02;7.35;;;7.80;99.90;;;;;;4937812;29;20421;-93
2021/08/03 05:03:14;;;;;;;12.25;6.40;;;7.80;99.90;;;;;;4938073;29;20390;-92
2021/08/03 05:05:40;;;;;;;13.48;7.55;;;7.90;99.90;;;;;;4937019;29;20037;-92
2021/08/03 05:08:06;;;;;;;10.90;7.20;;;7.90;99.90;;;;;;4937778;29;20023;-93
2021/08/03 05:10:32;;;;;;;11.50;6.32;;;8.00;99.90;;;;;;4937313;29;20058;-92
2021/08/03 05:12:58;;;;;;;12.50;6.60;;;8.00;99.90;;;;;;4937601;29;20025;-91
2021/08/03 05:15:25;;;;;;;9.52;5.90;;;8.00;99.90;;;;;;4937563;29;20434;-91
2021/08/03 05:17:51;;;;;;;14.05;6.80;;;8.00;99.90;;;;;;4939773;29;20471;-93
2021/08/03 05:20:17;;;;;;;11.98;6.25;;;8.00;99.90;;;;;;4941369;29;20070;-92
2021/08/03 05:22:43;;;;;;;9.55;5.80;;;8.10;99.90;;;;;;4957640;29;20042;-92
2021/08/03 05:25:09;;;;;;;12.15;6.30;;;8.00;99.90;;;;;;4956061;29;20027;-92
2021/08/03 05:27:35;;;;;;;12.35;6.93;;;8.10;99.90;;;;;;4957986;29;20038;-92
2021/08/03 05:30:01;;;;;;;11.13;6.40;;;8.10;99.90;;;;;;4951853;29;20031;-92
2021/08/03 05:32:27;;;;;;;11.40;6.68;;;8.00;99.90;;;;;;4969427;29;20035;-92
2021/08/03 05:34:53;;;;;;;9.85;6.00;;;8.10;99.90;;;;;;4953449;29;20046;-92
2021/08/03 05:37:18;;;;;;;11.27;6.15;;;8.10;99.90;;;;;;4948943;29;20042;-92
2021/08/03 05:39:44;;;;;;;11.02;5.88;;;8.10;99.90;;;;;;4947109;29;20394;-92
2021/08/03 05:42:10;;;;;;;13.05;5.50;;;8.10;99.90;;;;;;4941837;29;20695;-92
2021/08/03 05:44:36;;;;;;;11.63;6.63;;;8.10;99.90;;;;;;4941483;29;20441;-92
2021/08/03 05:47:02;;;;;;;11.60;6.63;;;8.10;99.90;;;;;;4941576;29;20049;-91
2021/08/03 05:49:28;;;;;;;10.50;6.40;;;8.10;99.90;;;;;;4940400;29;20023;-92
2021/08/03 05:51:55;;;;;;;12.68;6.90;;;8.20;99.90;;;;;;4940418;29;20034;-91
2021/08/03 05:54:22;;;;;;;14.15;6.50;;;8.30;99.90;;;;;;4939831;29;20028;-92
2021/08/03 05:56:47;;;;;;;15.65;6.97;;;8.30;99.90;;;;;;4939917;29;20023;-92
2021/08/03 05:59:13;;;;;;;11.50;6.40;;;8.40;99.90;;;;;;4939663;29;20019;-92
2021/08/03 06:01:39;;;;;;;12.63;6.32;;;8.50;99.90;;;;;;4939540;29;20082;-91
2021/08/03 06:04:04;;;;;;;10.27;5.72;;;8.50;99.90;;;;;;4939503;29;20023;-92
2021/08/03 06:06:38;;;;;;;12.70;6.03;;;8.60;99.90;;;;;;4939710;29;20118;-91
2021/08/03 06:09:04;;;;;;;10.57;6.22;;;8.60;99.90;;;;;;4939534;29;20020;-92
2021/08/03 06:11:29;;;;;;;9.32;5.78;;;8.60;99.90;;;;;;4939825;29;20050;-91
2021/08/03 06:13:58;;;;;;;11.68;6.20;;;8.70;99.90;;;;;;4956817;29;20118;-92
2021/08/03 06:16:27;;;;;;;9.15;5.40;;;8.80;99.90;;;;;;4938162;29;20027;-91
2021/08/03 06:18:56;;;;;;;12.07;5.68;;;8.90;99.90;;;;;;4939281;29;20441;-91
2021/08/03 06:21:22;;;;;;;8.95;5.70;;;8.90;99.90;;;;;;4938430;29;20043;-91
2021/08/03 06:23:49;;;;;;;11.52;5.78;;;8.90;99.90;;;;;;4938139;29;20028;-92
2021/08/03 06:26:19;;;;;;;10.20;5.70;;;9.00;99.90;;;;;;4937767;29;20027;-91
2021/08/03 06:28:49;;;;;;;10.57;5.85;;;9.10;99.90;;;;;;4936962;29;20175;-92
2021/08/03 06:31:15;;;;;;;9.35;5.85;;;9.10;99.90;;;;;;4938235;29;20058;-91
2021/08/03 06:33:41;;;;;;;10.10;5.20;;;9.20;99.90;;;;;;4938453;29;20118;-93
2021/08/03 06:36:07;;;;;;;10.55;5.93;;;9.30;99.90;;;;;;4935930;29;20038;-91
2021/08/03 06:38:32;;;;;;;7.72;5.30;;;9.40;99.90;;;;;;4955143;29;20031;-92
2021/08/03 06:41:04;;;;;;;11.02;6.18;;;9.50;99.90;;;;;;4938538;29;20031;-91
2021/08/03 06:43:32;;;;;;;8.73;5.63;;;9.60;99.90;;;;;;4936094;29;20023;-92
2021/08/03 06:46:12;;;;;;;7.97;5.32;;;9.70;99.90;;;;;;4938505;29;20030;-91
2021/08/03 06:48:48;;;;;;;8.48;5.43;;;9.80;99.90;;;;;;4938938;29;20118;-91
2021/08/03 06:51:16;;;;;;;8.65;5.35;;;9.90;99.90;;;;;;4940374;29;20034;-93
2021/08/03 06:53:44;;;;;;;7.70;5.00;;;10.00;99.90;;;;;;4940111;29;20031;-93
2021/08/03 06:56:15;;;;;;;9.10;5.55;;;10.10;99.90;;;;;;4939696;29;20027;-94
2021/08/03 06:58:49;;;;;;;8.35;5.13;;;10.10;99.90;;;;;;4940915;29;20055;-94
2021/08/03 07:01:39;;;;;;;7.15;4.72;;;10.20;99.90;;;;;;4941433;29;20039;-94
2021/08/03 07:04:06;;;;;;;8.98;5.07;;;10.30;99.90;;;;;;4939874;29;20037;-94
2021/08/03 07:06:36;;;;;;;9.75;5.30;;;10.30;99.90;;;;;;4941798;29;20034;-96
2021/08/03 07:09:07;;;;;;;8.18;5.10;;;10.50;99.90;;;;;;4940206;29;20039;-93
2021/08/03 07:11:33;;;;;;;8.32;4.88;;;10.50;99.90;;;;;;4941084;29;20043;-92
2021/08/03 07:13:59;;;;;;;11.00;6.35;;;10.70;99.90;;;;;;4940883;29;20540;-93
2021/08/03 07:16:27;;;;;;;10.98;5.43;;;10.70;99.90;;;;;;4939638;29;20015;-92
2021/08/03 07:18:57;;;;;;;9.20;5.15;;;10.80;99.90;;;;;;4936972;29;20082;-92
2021/08/03 07:21:27;;;;;;;7.67;5.60;;;10.90;99.90;;;;;;4938667;29;20098;-93
2021/08/03 07:23:57;;;;;;;9.27;4.90;;;11.00;99.90;;;;;;4943989;29;20362;-93
2021/08/03 07:26:26;;;;;;;7.78;5.05;;;11.10;99.90;;;;;;4937377;29;20043;-93
2021/08/03 07:28:52;;;;;;;8.95;5.32;;;11.20;99.90;;;;;;4935522;29;20316;-94
2021/08/03 07:31:18;;;;;;;8.85;4.80;;;11.30;99.90;;;;;;4938427;29;20047;-92
2021/08/03 07:33:44;;;;;;;7.95;4.20;;;11.40;99.90;;;;;;4938776;29;20023;-90
2021/08/03 07:36:12;;;;;;;6.32;3.95;;;11.50;99.90;;;;;;4938984;29;20038;-91
2021/08/03 07:38:39;;;;;;;8.38;3.70;;;11.60;99.90;;;;;;4940848;29;20019;-96
2021/08/03 07:41:07;;;;;;;9.80;4.78;;;11.70;99.90;;;;;;4949060;29;20043;-96
2021/08/03 07:43:34;;;;;;;9.40;4.25;;;11.90;99.90;;;;;;4949444;29;20033;-96
2021/08/03 07:46:35;;;;;;;6.88;4.15;;;12.00;99.90;;;;;;4959926;29;20038;-96
2021/08/03 07:54:09;;;;;;;6.25;3.80;;;12.50;99.90;;;;;;5192335;23;20087;-95
2021/08/03 11:27:28;;;;;;;5.03;2.80;;;22.70;69.10;;;;;;4958651;29;20058;-95
2021/08/03 12:03:11;;;;;;;6.82;3.90;;;24.40;63.70;;;;;;5049675;23;20062;-95
2021/08/03 12:05:41;;;;;;;7.18;3.67;;;24.30;64.00;;;;;;4973815;28;20018;-95
2021/08/03 12:08:43;;;;;;;6.40;3.83;;;24.30;64.90;;;;;;4953147;29;20030;-95
2021/08/03 12:11:25;;;;;;;5.80;3.60;;;24.10;65.20;;;;;;4942204;29;20477;-96
2021/08/03 12:14:08;;;;;;;12.60;4.45;;;24.00;65.60;;;;;;4956079;29;20074;-94
2021/08/03 12:16:37;;;;;;;6.80;4.68;;;23.70;65.50;;;;;;4970569;29;20023;-96
2021/08/03 12:19:26;;;;;;;7.40;4.80;;;23.50;65.60;;;;;;5162447;23;20048;-96
2021/08/03 12:22:31;;;;;;;12.32;4.90;;;23.40;65.80;;;;;;4929112;29;20043;-95
2021/08/03 12:25:30;;;;;;;7.28;4.32;;;23.30;65.70;;;;;;4952348;29;20035;-95
2021/08/03 12:28:26;;;;;;;8.30;4.82;;;23.30;66.40;;;;;;4959546;29;20039;-96
2021/08/03 12:31:41;;;;;;;10.77;4.97;;;23.20;66.40;;;;;;4979861;29;20079;-96
2021/08/03 12:34:36;;;;;;;11.57;5.07;;;23.30;66.30;;;;;;4981200;28;20018;-95
2021/08/03 12:37:02;;;;;;;8.77;4.40;;;23.30;66.00;;;;;;4960679;29;20033;-96
2021/08/03 12:39:39;;;;;;;10.80;4.80;;;23.40;66.40;;;;;;4956231;29;20035;-95
2021/08/03 12:45:13;;;;;;;7.80;4.45;;;23.90;65.40;;;;;;4975640;29;20035;-95
2021/08/03 12:48:14;;;;;;;9.55;5.03;;;24.10;64.00;;;;;;4962156;29;20039;-96
2021/08/03 12:50:56;;;;;;;7.85;4.45;;;24.10;63.80;;;;;;4964741;29;20050;-95
2021/08/03 12:53:25;;;;;;;6.05;4.07;;;24.20;64.30;;;;;;4978474;29;20031;-95
2021/08/03 13:01:15;;;;;;;7.93;4.53;;;24.50;64.20;;;;;;4976040;28;20036;-96
2021/08/03 13:03:42;;;;;;;;;;;24.50;63.10;;;;;;4975604;28;20035;-95
2021/08/03 13:06:10;;;;;;;5.63;3.58;;;24.60;62.80;;;;;;4960068;29;19907;-96
2021/08/03 13:08:38;;;;;;;4.90;3.22;;;24.80;62.30;;;;;;4958065;29;20015;-95
2021/08/03 13:11:09;;;;;;;6.55;3.50;;;24.90;61.80;;;;;;4942533;29;20043;-96
2021/08/03 13:13:48;;;;;;;8.32;4.88;;;25.00;61.90;;;;;;4973979;29;20027;-95
2021/08/03 13:16:21;;;;;;;7.10;4.38;;;25.00;60.70;;;;;;4959731;29;20051;-95
2021/08/03 13:18:56;;;;;;;6.97;4.32;;;25.00;60.80;;;;;;4981658;28;20012;-95
2021/08/03 13:21:22;;;;;;;7.55;4.20;;;24.90;60.70;;;;;;4978910;28;20493;-95
2021/08/03 13:23:48;;;;;;;5.95;3.90;;;24.90;60.70;;;;;;4959611;29;20044;-96
2021/08/03 13:26:18;;;;;;;7.00;4.22;;;24.90;60.40;;;;;;4975927;29;20033;-96
2021/08/03 13:28:44;;;;;;;6.45;4.43;;;25.10;60.80;;;;;;4956503;29;20150;-96
2021/08/03 13:31:33;;;;;;;;;;;;;;;;;;;;;
2021/08/03 13:34:42;;;;;;;7.10;4.63;;;25.30;59.00;;;;;;4962271;29;20034;-95
2021/08/03 13:42:42;;;;;;;6.32;4.60;;;24.50;60.60;;;;;;4996013;28;20054;-96
2021/08/03 13:45:09;;;;;;;7.95;4.50;;;24.50;61.20;;;;;;4961148;28;20047;-96
2021/08/03 13:47:44;;;;;;;7.32;4.57;;;24.70;61.30;;;;;;4971146;28;20031;-95
2021/08/03 13:50:11;;;;;;;8.55;5.07;;;25.00;60.90;;;;;;4991449;28;20034;-95
2021/08/03 13:52:37;;;;;;;7.15;3.80;;;25.30;60.50;;;;;;4973870;28;20057;-96
2021/08/03 13:55:03;;;;;;;6.47;3.72;;;25.50;59.70;;;;;;4971200;28;20505;-95
2021/08/03 13:57:28;;;;;;;5.95;3.85;;;25.50;58.10;;;;;;4966738;28;20496;-95
2021/08/03 13:59:54;;;;;;;6.75;3.50;;;25.50;57.80;;;;;;4965861;28;20026;-95
2021/08/03 14:02:20;;;;;;;4.75;2.90;;;25.70;58.20;;;;;;4967172;28;20035;-95
2021/08/03 14:04:53;;;;;;;8.52;3.40;;;26.00;58.10;;;;;;4969601;28;20023;-95
2021/08/03 14:07:19;;;;;;;3.47;2.63;;;26.20;57.60;;;;;;4970890;28;20503;-96
2021/08/03 14:09:44;;;;;;;6.10;3.38;;;26.30;56.50;;;;;;4963550;28;20022;-94
2021/08/03 14:12:10;;;;;;;8.18;3.58;;;26.50;56.40;;;;;;4965376;28;20042;-93
2021/08/03 14:14:36;;;;;;;5.82;3.35;;;26.60;56.30;;;;;;4966855;28;20027;-94
2021/08/03 14:17:03;;;;;;;8.02;3.30;;;26.70;56.30;;;;;;4956221;28;20034;-96
2021/08/03 14:19:29;;;;;;;8.18;3.80;;;26.80;56.10;;;;;;4967377;28;20026;-95
2021/08/03 14:21:59;;;;;;;9.68;4.47;;;26.90;55.40;;;;;;4980855;28;20070;-95
2021/08/03 14:24:24;;;;;;;5.35;3.65;;;27.00;55.50;;;;;;4965299;28;20030;-93
2021/08/03 14:26:55;;;;;;;8.98;4.28;;;26.90;55.10;;;;;;4963173;28;20385;-96
2021/08/03 14:29:20;;;;;;;11.27;4.50;;;26.90;55.30;;;;;;4964882;28;20041;-95
2021/08/03 14:31:46;;;;;;;4.38;3.17;;;26.80;54.60;;;;;;4961641;28;20031;-96
2021/08/03 14:34:12;;;;;;;3.58;3.17;;;26.90;54.90;;;;;;4963465;28;20026;-94
2021/08/03 14:36:38;;;;;;;9.57;3.30;;;26.90;54.10;;;;;;4968967;28;20122;-94
2021/08/03 14:39:04;;;;;;;3.60;2.80;;;26.90;54.40;;;;;;4962422;28;20029;-96
2021/08/03 14:41:38;;;;;;;6.63;3.55;;;26.90;54.20;;;;;;4965319;28;20187;-96
2021/08/03 14:44:07;;;;;;;5.55;3.28;;;26.90;54.00;;;;;;4964244;28;20035;-94
2021/08/03 14:46:33;;;;;;;6.13;4.38;;;26.80;54.20;;;;;;4960772;28;20053;-95
2021/08/03 14:48:58;;;;;;;6.95;4.45;;;27.00;54.20;;;;;;4963179;28;20029;-95
2021/08/03 14:51:24;;;;;;;5.22;4.00;;;27.20;53.80;;;;;;4963866;28;20033;-96
2021/08/03 14:53:50;;;;;;;3.95;2.88;;;27.40;53.50;;;;;;4964918;28;20366;-96
2021/08/03 14:56:18;;;;;;;3.50;2.80;;;27.50;53.20;;;;;;4966821;28;20158;-95
2021/08/03 14:58:45;;;;;;;3.65;2.60;;;27.60;52.90;;;;;;4962825;28;20031;-96
2021/08/03 15:01:10;;;;;;;4.18;2.97;;;27.70;52.70;;;;;;4961308;28;20476;-95
2021/08/03 15:03:36;;;;;;;4.43;2.70;;;27.80;52.10;;;;;;4961497;28;20086;-95
2021/08/03 15:06:05;;;;;;;5.03;2.83;;;27.90;51.90;;;;;;4962277;28;20029;-95
2021/08/03 15:08:30;;;;;;;6.88;3.20;;;28.00;51.70;;;;;;4965984;28;20023;-96
2021/08/03 15:10:56;;;;;;;5.45;2.95;;;27.80;51.70;;;;;;4975708;28;20022;-96
2021/08/03 15:13:22;;;;;;;3.90;2.83;;;27.60;51.80;;;;;;4980540;28;20046;-96
2021/08/03 15:15:48;;;;;;;4.03;2.72;;;27.20;52.20;;;;;;4966085;28;20534;-95
2021/08/03 15:18:13;;;;;;;4.35;2.88;;;26.90;52.60;;;;;;4964974;28;20089;-95
2021/08/03 15:20:39;;;;;;;5.97;2.95;;;26.70;53.40;;;;;;4965663;28;20492;-95
2021/08/03 15:23:05;;;;;;;4.95;2.92;;;26.80;54.00;;;;;;4972755;28;20037;-93
2021/08/03 15:25:31;;;;;;;6.38;2.80;;;26.80;54.00;;;;;;4974039;28;20027;-94
2021/08/03 15:27:57;;;;;;;6.70;3.45;;;26.90;54.30;;;;;;4968326;28;20507;-94
2021/08/03 15:30:23;;;;;;;4.50;3.03;;;27.10;54.00;;;;;;4963581;28;20085;-96
2021/08/03 15:32:49;;;;;;;4.82;2.72;;;27.20;53.60;;;;;;4962328;28;20058;-95
2021/08/03 15:35:15;;;;;;;6.15;2.70;;;27.30;53.70;;;;;;4962240;28;20042;-95
2021/08/03 15:37:41;;;;;;;6.60;3.63;;;27.40;53.70;;;;;;4961992;28;20030;-94
2021/08/03 15:40:07;;;;;;;6.07;2.75;;;27.50;53.40;;;;;;4960313;28;20034;-94
2021/08/03 15:42:33;;;;;;;5.55;2.70;;;27.50;53.00;;;;;;4960999;28;20047;-96
2021/08/03 15:44:58;;;;;;;4.40;3.22;;;27.50;52.90;;;;;;4964374;28;20550;-96
2021/08/03 15:47:24;;;;;;;5.35;3.17;;;27.40;52.30;;;;;;4963369;28;20393;-96
2021/08/03 15:49:50;;;;;;;5.15;3.33;;;27.20;52.20;;;;;;4961306;28;20503;-96
2021/08/03 15:52:15;;;;;;;3.97;2.90;;;27.10;52.90;;;;;;4961177;28;20038;-96
2021/08/03 15:54:44;;;;;;;4.95;3.00;;;27.10;53.20;;;;;;4960257;28;20438;-94
2021/08/03 15:57:10;;;;;;;4.65;2.80;;;26.90;53.20;;;;;;4958278;28;20026;-94
2021/08/03 15:59:36;;;;;;;6.60;3.20;;;26.70;53.40;;;;;;4958580;28;20023;-94
2021/08/03 16:02:01;;;;;;;7.40;3.50;;;26.60;53.50;;;;;;4957007;28;20043;-94
2021/08/03 16:04:28;;;;;;;6.40;3.88;;;26.60;53.70;;;;;;4957547;28;20433;-95
2021/08/03 16:06:54;;;;;;;5.13;3.03;;;26.60;53.30;;;;;;4958496;28;20030;-95
2021/08/03 16:09:20;;;;;;;5.43;2.92;;;26.60;53.30;;;;;;4958371;28;20073;-94
2021/08/03 16:11:46;;;;;;;4.57;2.80;;;26.70;53.10;;;;;;4958332;28;20443;-95
2021/08/03 16:14:11;;;;;;;5.63;3.50;;;26.80;53.40;;;;;;4958335;28;20019;-94
2021/08/03 16:16:38;;;;;;;4.90;3.30;;;26.90;53.50;;;;;;4963288;28;20114;-95
2021/08/03 16:19:06;;;;;;;5.53;3.08;;;26.80;53.00;;;;;;4958766;28;20413;-95
2021/08/03 16:21:33;;;;;;;7.53;3.78;;;26.50;53.20;;;;;;4958767;28;20042;-94
2021/08/03 16:23:59;;;;;;;6.45;3.80;;;26.20;53.80;;;;;;4958694;28;20023;-95
2021/08/03 16:26:28;;;;;;;4.18;2.53;;;26.10;54.00;;;;;;4962110;28;20045;-96
2021/08/03 16:28:57;;;;;;;3.40;2.70;;;25.90;54.20;;;;;;4963511;28;20034;-94
2021/08/03 16:31:26;;;;;;;5.55;3.03;;;25.90;54.50;;;;;;4976314;28;20031;-96
2021/08/03 16:34:03;;;;;;;4.70;3.40;;;25.70;54.60;;;;;;4965793;28;20031;-96
2021/08/03 16:36:30;;;;;;;4.85;2.88;;;25.50;54.70;;;;;;4972127;28;20094;-96
2021/08/03 16:38:59;;;;;;;7.15;2.75;;;25.40;55.00;;;;;;4964002;28;20030;-96
2021/08/03 16:41:29;;;;;;;3.95;2.65;;;25.20;55.10;;;;;;4957635;29;20043;-95
2021/08/03 16:43:56;;;;;;;4.05;2.70;;;25.20;55.30;;;;;;4957843;29;20031;-96
2021/08/03 16:46:26;;;;;;;4.47;3.35;;;25.20;55.30;;;;;;4956077;29;20041;-96
2021/08/03 16:48:52;;;;;;;5.40;3.55;;;25.30;55.50;;;;;;4942546;29;20473;-96
2021/08/03 16:51:19;;;;;;;4.05;3.10;;;25.20;55.30;;;;;;4956861;29;20027;-96
2021/08/03 16:53:47;;;;;;;5.32;3.38;;;25.30;55.30;;;;;;4966228;29;20034;-96
2021/08/03 16:56:20;;;;;;;7.63;3.70;;;25.30;55.40;;;;;;4966242;29;20569;-96
2021/08/03 16:58:46;;;;;;;5.50;3.40;;;25.20;55.40;;;;;;4967862;29;20038;-95
2021/08/03 17:01:14;;;;;;;3.85;3.17;;;25.20;55.40;;;;;;4973772;29;20067;-95
2021/08/03 17:03:49;;;;;;;3.97;2.80;;;25.20;55.50;;;;;;4968960;29;20099;-96
2021/08/03 17:06:35;;;;;;;6.38;3.42;;;25.20;55.70;;;;;;4956816;29;20047;-96
2021/08/03 17:09:09;;;;;;;4.93;3.13;;;25.20;55.60;;;;;;4955488;29;20051;-96
2021/08/03 17:12:08;;;;;;;6.82;2.92;;;25.10;55.70;;;;;;4955892;29;20044;-95
2021/08/03 17:14:57;;;;;;;3.42;2.67;;;25.10;55.60;;;;;;4959048;29;20067;-96
2021/08/03 17:17:40;;;;;;;5.93;3.17;;;25.00;55.70;;;;;;4970516;29;20492;-96
2021/08/03 17:20:09;;;;;;;4.00;2.67;;;24.80;56.00;;;;;;4973402;29;20031;-96
2021/08/03 17:22:36;;;;;;;4.57;3.03;;;24.70;56.10;;;;;;4968881;29;20042;-96
2021/08/03 17:25:09;;;;;;;4.38;2.90;;;24.50;56.40;;;;;;4966100;29;20030;-96
2021/08/03 17:27:37;;;;;;;7.60;3.50;;;24.50;56.70;;;;;;4966716;29;20066;-95